DLH402 EDDF-KEWR
Flight info
| Callsign | DLH402 |
|---|---|
| Flight time | N/A |
| Altitude | 36000 |
| Route | OBOKA5G/25C OBOKA Z28 DIBIR DCT BUDIP DCT MIMVA L602 EMLON M79 TENDO DCT NAVSO DCT IBROD DCT SUNOT/M083F370 NATC HOIST/N0477F380 N750B YBC DCT IMORI DCT HANAA FLOSI4 |
| Aircraft | B789/H-SDE1E2E3FGHIJ2J3J4J5M1RWXY/LB1D1 |
Departure
| Time | N/A |
|---|---|
| Airport | Frankfurt Main Airport (EDDF) |
Arrival
| Time | 2026-04-25 11:15 |
|---|---|
| Airport | Newark Liberty International Airport (KEWR) |
| Time | Latitude | Longitude | Altitude | Speed | Heading |
|---|---|---|---|---|---|
| 2026-04-25 10:50 | 42.27198 | -74.02145 | 36065 ft | 534 kts | 205° |
| 2026-04-25 10:50 | 42.20138 | -74.05194 | 36060 ft | 532 kts | 205° |
| 2026-04-25 10:50 | 42.16646 | -74.06697 | 35517 ft | 523 kts | 205° |
| 2026-04-25 10:51 | 42.13194 | -74.08198 | 34746 ft | 519 kts | 206° |
| 2026-04-25 10:51 | 42.09777 | -74.09683 | 34027 ft | 514 kts | 206° |
| 2026-04-25 10:51 | 42.06424 | -74.11122 | 33288 ft | 496 kts | 206° |
| 2026-04-25 10:51 | 42.03199 | -74.12498 | 32624 ft | 478 kts | 207° |
| 2026-04-25 10:52 | 42.00083 | -74.13845 | 31994 ft | 462 kts | 207° |
| 2026-04-25 10:52 | 41.97072 | -74.15152 | 31414 ft | 448 kts | 207° |
| 2026-04-25 10:52 | 41.94146 | -74.16411 | 30847 ft | 435 kts | 207° |
| 2026-04-25 10:52 | 41.91282 | -74.17642 | 30299 ft | 432 kts | 207° |
| 2026-04-25 10:53 | 41.88417 | -74.18880 | 29726 ft | 433 kts | 207° |
| 2026-04-25 10:53 | 41.85557 | -74.20106 | 29148 ft | 431 kts | 207° |
| 2026-04-25 10:53 | 41.82714 | -74.21317 | 28598 ft | 427 kts | 207° |
| 2026-04-25 10:53 | 41.79895 | -74.22521 | 28053 ft | 423 kts | 207° |
| 2026-04-25 10:54 | 41.77107 | -74.23716 | 27523 ft | 420 kts | 207° |
| 2026-04-25 10:54 | 41.75268 | -74.24504 | 27187 ft | 417 kts | 207° |
| 2026-04-25 10:54 | 41.71588 | -74.26073 | 26504 ft | 413 kts | 206° |
| 2026-04-25 10:54 | 41.68854 | -74.27237 | 25995 ft | 410 kts | 206° |
| 2026-04-25 10:55 | 41.66148 | -74.28390 | 25497 ft | 407 kts | 206° |
| 2026-04-25 10:55 | 41.63465 | -74.29534 | 25005 ft | 404 kts | 206° |
| 2026-04-25 10:55 | 41.60797 | -74.30669 | 24506 ft | 401 kts | 206° |
| 2026-04-25 10:55 | 41.58144 | -74.31795 | 24027 ft | 399 kts | 206° |
| 2026-04-25 10:56 | 41.56401 | -74.32535 | 23705 ft | 397 kts | 206° |
| 2026-04-25 10:56 | 41.53779 | -74.33648 | 23146 ft | 393 kts | 206° |
| 2026-04-25 10:56 | 41.51188 | -74.34761 | 22624 ft | 389 kts | 206° |
| 2026-04-25 10:56 | 41.47805 | -74.36237 | 21940 ft | 383 kts | 206° |
| 2026-04-25 10:57 | 41.45282 | -74.37327 | 21470 ft | 378 kts | 205° |
| 2026-04-25 10:57 | 41.42796 | -74.38391 | 21013 ft | 374 kts | 205° |
| 2026-04-25 10:57 | 41.41121 | -74.39109 | 20707 ft | 370 kts | 205° |
| 2026-04-25 10:57 | 41.38688 | -74.40159 | 20252 ft | 366 kts | 205° |
| 2026-04-25 10:58 | 41.36275 | -74.41201 | 19819 ft | 365 kts | 205° |
| 2026-04-25 10:58 | 41.33853 | -74.42243 | 19376 ft | 366 kts | 205° |
| 2026-04-25 10:58 | 41.31475 | -74.43262 | 18949 ft | 362 kts | 204° |
| 2026-04-25 10:58 | 41.29061 | -74.44295 | 18512 ft | 358 kts | 204° |
| 2026-04-25 10:59 | 41.26728 | -74.45295 | 18056 ft | 355 kts | 204° |
| 2026-04-25 10:59 | 41.24394 | -74.46295 | 17585 ft | 351 kts | 204° |
| 2026-04-25 10:59 | 41.22088 | -74.47282 | 17153 ft | 346 kts | 204° |
| 2026-04-25 10:59 | 41.19813 | -74.48254 | 16721 ft | 341 kts | 204° |
| 2026-04-25 11:00 | 41.17560 | -74.49218 | 16306 ft | 340 kts | 204° |
| 2026-04-25 11:00 | 41.15313 | -74.50180 | 15895 ft | 339 kts | 204° |
| 2026-04-25 11:00 | 41.13071 | -74.51136 | 15473 ft | 336 kts | 204° |
| 2026-04-25 11:00 | 41.10867 | -74.52071 | 15058 ft | 330 kts | 204° |
| 2026-04-25 11:01 | 41.08692 | -74.52999 | 14678 ft | 329 kts | 204° |
| 2026-04-25 11:01 | 41.06494 | -74.53846 | 14262 ft | 332 kts | 196° |
| 2026-04-25 11:01 | 41.04170 | -74.54047 | 13857 ft | 332 kts | 188° |
| 2026-04-25 11:01 | 41.01879 | -74.54246 | 13439 ft | 328 kts | 189° |
| 2026-04-25 11:02 | 40.99599 | -74.54491 | 13016 ft | 329 kts | 189° |
| 2026-04-25 11:02 | 40.97322 | -74.54714 | 12589 ft | 326 kts | 189° |
| 2026-04-25 11:02 | 40.95075 | -74.54907 | 12166 ft | 322 kts | 188° |
| 2026-04-25 11:02 | 40.92832 | -74.55109 | 11772 ft | 324 kts | 188° |
| 2026-04-25 11:03 | 40.90585 | -74.55321 | 11390 ft | 324 kts | 188° |
| 2026-04-25 11:03 | 40.88353 | -74.55528 | 10994 ft | 318 kts | 188° |
| 2026-04-25 11:03 | 40.86151 | -74.55729 | 10610 ft | 317 kts | 188° |
| 2026-04-25 11:03 | 40.83989 | -74.55925 | 10420 ft | 304 kts | 188° |
| 2026-04-25 11:04 | 40.81918 | -74.55953 | 10201 ft | 295 kts | 180° |
| 2026-04-25 11:04 | 40.79889 | -74.55824 | 9877 ft | 291 kts | 181° |
| 2026-04-25 11:04 | 40.77867 | -74.55739 | 9536 ft | 290 kts | 181° |
| 2026-04-25 11:04 | 40.75853 | -74.55641 | 9217 ft | 290 kts | 181° |
| 2026-04-25 11:05 | 40.73855 | -74.55527 | 8903 ft | 283 kts | 181° |
| 2026-04-25 11:05 | 40.71902 | -74.55417 | 8588 ft | 280 kts | 181° |
| 2026-04-25 11:05 | 40.69955 | -74.55318 | 8296 ft | 280 kts | 181° |
| 2026-04-25 11:05 | 40.68009 | -74.55217 | 7990 ft | 277 kts | 181° |
| 2026-04-25 11:06 | 40.66104 | -74.55062 | 7677 ft | 273 kts | 175° |
| 2026-04-25 11:06 | 40.64345 | -74.54047 | 7305 ft | 281 kts | 148° |
| 2026-04-25 11:06 | 40.62733 | -74.52613 | 7075 ft | 280 kts | 148° |
| 2026-04-25 11:06 | 40.61127 | -74.51192 | 6802 ft | 274 kts | 148° |
| 2026-04-25 11:07 | 40.59547 | -74.49808 | 6536 ft | 274 kts | 149° |
| 2026-04-25 11:07 | 40.57957 | -74.48421 | 6254 ft | 272 kts | 149° |
| 2026-04-25 11:07 | 40.56406 | -74.47062 | 5953 ft | 264 kts | 149° |
| 2026-04-25 11:07 | 40.54900 | -74.45742 | 5676 ft | 257 kts | 148° |
| 2026-04-25 11:08 | 40.53421 | -74.44449 | 5390 ft | 252 kts | 149° |
| 2026-04-25 11:08 | 40.51987 | -74.43199 | 5113 ft | 243 kts | 148° |
| 2026-04-25 11:08 | 40.50599 | -74.41976 | 4838 ft | 239 kts | 145° |
| 2026-04-25 11:08 | 40.49567 | -74.40274 | 4437 ft | 244 kts | 115° |
| 2026-04-25 11:09 | 40.49213 | -74.38164 | 4166 ft | 240 kts | 92° |
| 2026-04-25 11:09 | 40.49551 | -74.35999 | 3623 ft | 238 kts | 76° |
| 2026-04-25 11:09 | 40.50068 | -74.33969 | 2906 ft | 231 kts | 75° |
| 2026-04-25 11:09 | 40.50559 | -74.32002 | 2300 ft | 222 kts | 76° |
| 2026-04-25 11:10 | 40.51000 | -74.30121 | 1866 ft | 208 kts | 77° |
| 2026-04-25 11:10 | 40.51281 | -74.28956 | 1720 ft | 197 kts | 75° |
| 2026-04-25 11:10 | 40.52480 | -74.27270 | 1759 ft | 185 kts | 38° |
| 2026-04-25 11:10 | 40.53535 | -74.26484 | 1692 ft | 164 kts | 34° |
| 2026-04-25 11:11 | 40.54498 | -74.25864 | 1691 ft | 148 kts | 33° |
| 2026-04-25 11:11 | 40.55413 | -74.25278 | 1684 ft | 145 kts | 34° |
| 2026-04-25 11:11 | 40.56299 | -74.24709 | 1691 ft | 143 kts | 34° |
| 2026-04-25 11:11 | 40.57208 | -74.24134 | 1689 ft | 142 kts | 34° |
| 2026-04-25 11:12 | 40.58108 | -74.23561 | 1704 ft | 147 kts | 34° |
| 2026-04-25 11:12 | 40.59032 | -74.22970 | 1698 ft | 146 kts | 33° |
| 2026-04-25 11:12 | 40.59938 | -74.22397 | 1697 ft | 143 kts | 33° |
| 2026-04-25 11:12 | 40.60820 | -74.21838 | 1667 ft | 142 kts | 34° |
| 2026-04-25 11:13 | 40.61716 | -74.21263 | 1443 ft | 144 kts | 33° |
| 2026-04-25 11:13 | 40.62620 | -74.20692 | 1252 ft | 141 kts | 32° |
| 2026-04-25 11:13 | 40.63489 | -74.20147 | 993 ft | 140 kts | 32° |
| 2026-04-25 11:13 | 40.64357 | -74.19607 | 771 ft | 138 kts | 31° |
| 2026-04-25 11:14 | 40.65226 | -74.19038 | 606 ft | 137 kts | 31° |
| 2026-04-25 11:14 | 40.66098 | -74.18492 | 410 ft | 140 kts | 31° |
| 2026-04-25 11:14 | 40.66972 | -74.17924 | 241 ft | 138 kts | 30° |
| 2026-04-25 11:14 | 40.67816 | -74.17391 | 64 ft | 136 kts | 31° |
| 2026-04-25 11:15 | 40.68669 | -74.16867 | 28 ft | 126 kts | 32° |
| 2026-04-25 11:15 | 40.69262 | -74.16467 | 29 ft | 63 kts | 25° |
| 2026-04-25 11:15 | 40.69502 | -74.16318 | 28 ft | 20 kts | 24° |
| 2026-04-25 11:15 | 40.69603 | -74.16292 | 30 ft | 8 kts | 0° |
| 2026-04-25 11:16 | 40.69666 | -74.16295 | 27 ft | 6 kts | 356° |
| 2026-04-25 11:16 | 40.69718 | -74.16310 | 28 ft | 8 kts | 324° |
| 2026-04-25 11:16 | 40.69731 | -74.16366 | 25 ft | 6 kts | 262° |
| 2026-04-25 11:17 | 40.69732 | -74.16424 | 27 ft | 8 kts | 277° |
| 2026-04-25 11:17 | 40.69757 | -74.16496 | 28 ft | 10 kts | 296° |
| 2026-04-25 11:17 | 40.69786 | -74.16574 | 26 ft | 1 kts | 296° |
| 2026-04-25 11:17 | 40.69798 | -74.16608 | 21 ft | 4 kts | 296° |
| 2026-04-25 11:18 | 40.69804 | -74.16636 | 22 ft | 3 kts | 273° |
| 2026-04-25 11:18 | 40.69803 | -74.16650 | 21 ft | 2 kts | 262° |
| 2026-04-25 11:18 | 40.69802 | -74.16656 | 21 ft | 0 kts | 250° |
| 2026-04-25 11:23 | 40.69801 | -74.16659 | 21 ft | 1 kts | 255° |
| 2026-04-25 11:23 | 40.69795 | -74.16689 | 21 ft | 4 kts | 255° |
| 2026-04-25 11:23 | 40.69788 | -74.16727 | 23 ft | 4 kts | 252° |
| 2026-04-25 11:24 | 40.69778 | -74.16766 | 24 ft | 4 kts | 250° |
| 2026-04-25 11:24 | 40.69766 | -74.16798 | 27 ft | 4 kts | 233° |
| 2026-04-25 11:24 | 40.69742 | -74.16824 | 29 ft | 5 kts | 212° |
| 2026-04-25 11:24 | 40.69702 | -74.16851 | 29 ft | 7 kts | 206° |
| 2026-04-25 11:25 | 40.69662 | -74.16879 | 30 ft | 8 kts | 218° |
| 2026-04-25 11:25 | 40.69635 | -74.16946 | 25 ft | 9 kts | 251° |
| 2026-04-25 11:25 | 40.69614 | -74.17025 | 29 ft | 7 kts | 251° |
| 2026-04-25 11:25 | 40.69604 | -74.17064 | 28 ft | 6 kts | 244° |
| 2026-04-25 11:26 | 40.69554 | -74.17091 | 30 ft | 11 kts | 175° |
| 2026-04-25 11:26 | 40.69466 | -74.17072 | 28 ft | 14 kts | 172° |
| 2026-04-25 11:26 | 40.69361 | -74.17078 | 26 ft | 16 kts | 192° |
| 2026-04-25 11:26 | 40.69253 | -74.17135 | 29 ft | 17 kts | 206° |
| 2026-04-25 11:27 | 40.69139 | -74.17207 | 24 ft | 19 kts | 205° |
| 2026-04-25 11:27 | 40.69018 | -74.17284 | 27 ft | 14 kts | 206° |
| 2026-04-25 11:27 | 40.68931 | -74.17340 | 30 ft | 13 kts | 206° |
| 2026-04-25 11:27 | 40.68875 | -74.17375 | 26 ft | 14 kts | 205° |
| 2026-04-25 11:28 | 40.68757 | -74.17451 | 29 ft | 14 kts | 205° |
| 2026-04-25 11:28 | 40.68668 | -74.17507 | 31 ft | 15 kts | 205° |
| 2026-04-25 11:28 | 40.68609 | -74.17556 | 30 ft | 5 kts | 242° |
| 2026-04-25 11:28 | 40.68616 | -74.17603 | 29 ft | 4 kts | 293° |
| 2026-04-25 11:29 | 40.68621 | -74.17619 | 29 ft | 5 kts | 293° |
| 2026-04-25 11:29 | 40.68639 | -74.17653 | 28 ft | 6 kts | 319° |
| 2026-04-25 11:29 | 40.68679 | -74.17670 | 28 ft | 5 kts | 1° |
| 2026-04-25 11:29 | 40.68706 | -74.17669 | 28 ft | 0 kts | 2° |
| 2026-04-25 11:30 | 40.68710 | -74.17669 | 28 ft | 0 kts | 3° |
| 2026-04-25 11:30 | 40.68716 | -74.17668 | 28 ft | 2 kts | 3° |
| 2026-04-25 11:30 | 40.68720 | -74.17668 | 28 ft | 1 kts | 4° |
| 2026-04-25 11:30 | 40.68726 | -74.17667 | 28 ft | 1 kts | 4° |